Legnica, Poland
Current Conditions -  °F | °C
As of 12:30 AM on Thursday 23 Oct 2014 (Local Time) from EPWR Reporting Station
Moderate Rain Moderate Rain  
Wind Chill: 52°   Ceiling: 400
Heat Index: 52°   Visibility: 4mi
Dew Point: 48°   Wind: 10mph
Humidity: 88%   Direction: 20°NNE
Pressure: 29.74"   Gusts: NA
Location:  51.21°N, 16.16°E
Report Text: EPWR 222230Z 02009KT 6000 RA BKN004 BKN008 11/09 Q1007
Loading
Personal Weather Stations






























Interactive Weather Map
Tropical Storm Tracking
New forecast layout! Learn more

10-Day Weather Forecast

Advertisements
Track Severe Weather on mobile